sensor_id;sensor_type;location;lat;lon;timestamp;P1;durP1;ratioP1;P2;durP2;ratioP2
4206;SDS011;2117;47.972;7.830;2024-01-30T00:02:06;4.23;;;2.07;;
4206;SDS011;2117;47.972;7.830;2024-01-30T00:04:32;7.00;;;2.73;;
4206;SDS011;2117;47.972;7.830;2024-01-30T00:06:57;3.87;;;2.50;;
4206;SDS011;2117;47.972;7.830;2024-01-30T00:09:23;6.43;;;2.00;;
4206;SDS011;2117;47.972;7.830;2024-01-30T00:11:49;5.13;;;2.20;;
4206;SDS011;2117;47.972;7.830;2024-01-30T00:14:14;4.37;;;2.30;;
4206;SDS011;2117;47.972;7.830;2024-01-30T00:16:40;4.90;;;2.23;;
4206;SDS011;2117;47.972;7.830;2024-01-30T00:19:06;14.03;;;3.30;;
4206;SDS011;2117;47.972;7.830;2024-01-30T00:21:33;5.90;;;2.63;;
4206;SDS011;2117;47.972;7.830;2024-01-30T00:23:59;5.53;;;2.93;;
4206;SDS011;2117;47.972;7.830;2024-01-30T00:26:24;8.83;;;3.13;;
4206;SDS011;2117;47.972;7.830;2024-01-30T00:28:50;8.23;;;3.13;;
4206;SDS011;2117;47.972;7.830;2024-01-30T00:31:16;6.43;;;3.00;;
4206;SDS011;2117;47.972;7.830;2024-01-30T00:33:42;9.57;;;2.63;;
4206;SDS011;2117;47.972;7.830;2024-01-30T00:36:08;4.23;;;2.17;;
4206;SDS011;2117;47.972;7.830;2024-01-30T00:38:34;4.10;;;2.30;;
4206;SDS011;2117;47.972;7.830;2024-01-30T00:41:01;3.23;;;1.87;;
4206;SDS011;2117;47.972;7.830;2024-01-30T00:43:29;6.77;;;2.77;;
4206;SDS011;2117;47.972;7.830;2024-01-30T00:45:56;6.63;;;2.23;;
4206;SDS011;2117;47.972;7.830;2024-01-30T00:48:23;4.83;;;2.40;;
4206;SDS011;2117;47.972;7.830;2024-01-30T00:50:48;3.30;;;1.83;;
4206;SDS011;2117;47.972;7.830;2024-01-30T00:53:14;5.90;;;3.03;;
4206;SDS011;2117;47.972;7.830;2024-01-30T00:55:40;4.30;;;2.30;;
4206;SDS011;2117;47.972;7.830;2024-01-30T00:58:05;4.20;;;2.10;;
4206;SDS011;2117;47.972;7.830;2024-01-30T01:00:31;4.63;;;1.97;;
4206;SDS011;2117;47.972;7.830;2024-01-30T01:02:58;8.03;;;2.80;;
4206;SDS011;2117;47.972;7.830;2024-01-30T01:05:24;7.93;;;2.13;;
4206;SDS011;2117;47.972;7.830;2024-01-30T01:07:50;5.50;;;2.40;;
4206;SDS011;2117;47.972;7.830;2024-01-30T01:10:16;4.57;;;2.20;;
4206;SDS011;2117;47.972;7.830;2024-01-30T01:12:42;5.93;;;1.83;;
4206;SDS011;2117;47.972;7.830;2024-01-30T01:15:08;2.83;;;1.77;;
4206;SDS011;2117;47.972;7.830;2024-01-30T01:17:40;4.57;;;1.70;;
4206;SDS011;2117;47.972;7.830;2024-01-30T01:20:06;3.37;;;2.30;;
4206;SDS011;2117;47.972;7.830;2024-01-30T01:22:33;2.40;;;1.47;;
4206;SDS011;2117;47.972;7.830;2024-01-30T01:24:59;3.47;;;2.27;;
4206;SDS011;2117;47.972;7.830;2024-01-30T01:27:25;3.27;;;2.20;;
4206;SDS011;2117;47.972;7.830;2024-01-30T01:29:51;4.40;;;1.87;;
4206;SDS011;2117;47.972;7.830;2024-01-30T01:32:17;3.70;;;1.90;;
4206;SDS011;2117;47.972;7.830;2024-01-30T01:34:44;4.23;;;1.63;;
4206;SDS011;2117;47.972;7.830;2024-01-30T01:37:09;4.13;;;1.60;;
4206;SDS011;2117;47.972;7.830;2024-01-30T01:39:35;2.97;;;2.00;;
4206;SDS011;2117;47.972;7.830;2024-01-30T01:42:01;2.63;;;1.90;;
4206;SDS011;2117;47.972;7.830;2024-01-30T01:44:27;2.60;;;1.80;;
4206;SDS011;2117;47.972;7.830;2024-01-30T01:46:53;5.87;;;1.90;;
4206;SDS011;2117;47.972;7.830;2024-01-30T01:49:19;2.10;;;1.80;;
4206;SDS011;2117;47.972;7.830;2024-01-30T01:51:45;4.97;;;2.10;;
4206;SDS011;2117;47.972;7.830;2024-01-30T01:54:13;4.43;;;2.17;;
4206;SDS011;2117;47.972;7.830;2024-01-30T01:56:40;3.73;;;2.30;;
4206;SDS011;2117;47.972;7.830;2024-01-30T01:59:07;4.47;;;2.60;;
4206;SDS011;2117;47.972;7.830;2024-01-30T02:01:34;3.43;;;2.13;;
4206;SDS011;2117;47.972;7.830;2024-01-30T02:04:02;2.70;;;1.83;;
4206;SDS011;2117;47.972;7.830;2024-01-30T02:06:27;3.77;;;2.40;;
4206;SDS011;2117;47.972;7.830;2024-01-30T02:08:54;4.10;;;2.10;;
4206;SDS011;2117;47.972;7.830;2024-01-30T02:11:20;4.13;;;2.03;;
4206;SDS011;2117;47.972;7.830;2024-01-30T02:13:47;2.80;;;1.90;;
4206;SDS011;2117;47.972;7.830;2024-01-30T02:16:13;4.17;;;2.40;;
4206;SDS011;2117;47.972;7.830;2024-01-30T02:18:39;4.70;;;2.57;;
4206;SDS011;2117;47.972;7.830;2024-01-30T02:21:10;3.50;;;2.00;;
4206;SDS011;2117;47.972;7.830;2024-01-30T02:23:36;3.83;;;1.97;;
4206;SDS011;2117;47.972;7.830;2024-01-30T02:26:02;5.37;;;2.10;;
4206;SDS011;2117;47.972;7.830;2024-01-30T02:28:28;3.47;;;2.30;;
4206;SDS011;2117;47.972;7.830;2024-01-30T02:30:53;14.40;;;2.60;;
4206;SDS011;2117;47.972;7.830;2024-01-30T02:33:19;4.80;;;2.40;;
4206;SDS011;2117;47.972;7.830;2024-01-30T02:35:46;5.50;;;2.00;;
4206;SDS011;2117;47.972;7.830;2024-01-30T02:38:12;4.70;;;2.13;;
4206;SDS011;2117;47.972;7.830;2024-01-30T02:40:38;6.60;;;2.57;;
4206;SDS011;2117;47.972;7.830;2024-01-30T02:43:03;3.87;;;2.13;;
4206;SDS011;2117;47.972;7.830;2024-01-30T02:45:29;6.73;;;2.30;;
4206;SDS011;2117;47.972;7.830;2024-01-30T02:47:55;4.53;;;2.80;;
4206;SDS011;2117;47.972;7.830;2024-01-30T02:50:20;4.30;;;2.40;;
4206;SDS011;2117;47.972;7.830;2024-01-30T02:52:46;5.53;;;3.10;;
4206;SDS011;2117;47.972;7.830;2024-01-30T02:55:12;4.10;;;2.30;;
4206;SDS011;2117;47.972;7.830;2024-01-30T02:57:38;4.70;;;2.80;;
4206;SDS011;2117;47.972;7.830;2024-01-30T03:00:04;3.50;;;2.47;;
4206;SDS011;2117;47.972;7.830;2024-01-30T03:02:31;4.97;;;2.50;;
4206;SDS011;2117;47.972;7.830;2024-01-30T03:04:57;6.80;;;2.63;;
4206;SDS011;2117;47.972;7.830;2024-01-30T03:07:23;4.03;;;2.20;;
4206;SDS011;2117;47.972;7.830;2024-01-30T03:09:48;5.40;;;2.77;;
4206;SDS011;2117;47.972;7.830;2024-01-30T03:12:14;2.93;;;2.10;;
4206;SDS011;2117;47.972;7.830;2024-01-30T03:14:40;3.90;;;2.33;;
4206;SDS011;2117;47.972;7.830;2024-01-30T03:17:05;6.10;;;2.77;;
4206;SDS011;2117;47.972;7.830;2024-01-30T03:19:31;5.53;;;2.53;;
4206;SDS011;2117;47.972;7.830;2024-01-30T03:21:56;6.00;;;2.40;;
4206;SDS011;2117;47.972;7.830;2024-01-30T03:24:22;6.10;;;2.37;;
4206;SDS011;2117;47.972;7.830;2024-01-30T03:26:47;3.40;;;2.17;;
4206;SDS011;2117;47.972;7.830;2024-01-30T03:29:13;4.77;;;2.20;;
4206;SDS011;2117;47.972;7.830;2024-01-30T03:31:39;4.57;;;2.27;;
4206;SDS011;2117;47.972;7.830;2024-01-30T03:34:04;4.23;;;2.23;;
4206;SDS011;2117;47.972;7.830;2024-01-30T03:36:30;8.53;;;2.57;;
4206;SDS011;2117;47.972;7.830;2024-01-30T03:38:58;5.27;;;2.00;;
4206;SDS011;2117;47.972;7.830;2024-01-30T03:41:23;3.90;;;2.33;;
4206;SDS011;2117;47.972;7.830;2024-01-30T03:43:49;4.43;;;2.23;;
4206;SDS011;2117;47.972;7.830;2024-01-30T03:46:15;4.63;;;2.20;;
4206;SDS011;2117;47.972;7.830;2024-01-30T03:48:41;4.20;;;2.30;;
4206;SDS011;2117;47.972;7.830;2024-01-30T03:51:06;4.37;;;2.53;;
4206;SDS011;2117;47.972;7.830;2024-01-30T03:53:32;5.40;;;2.60;;
4206;SDS011;2117;47.972;7.830;2024-01-30T03:55:57;6.00;;;2.73;;
4206;SDS011;2117;47.972;7.830;2024-01-30T03:58:23;5.00;;;2.17;;
4206;SDS011;2117;47.972;7.830;2024-01-30T04:00:49;4.03;;;2.17;;
4206;SDS011;2117;47.972;7.830;2024-01-30T04:03:14;4.33;;;2.23;;
4206;SDS011;2117;47.972;7.830;2024-01-30T04:05:43;3.47;;;2.13;;
4206;SDS011;2117;47.972;7.830;2024-01-30T04:08:10;5.40;;;2.43;;
4206;SDS011;2117;47.972;7.830;2024-01-30T04:10:36;3.53;;;1.83;;
4206;SDS011;2117;47.972;7.830;2024-01-30T04:13:01;7.60;;;2.93;;
4206;SDS011;2117;47.972;7.830;2024-01-30T04:15:27;4.50;;;2.50;;
4206;SDS011;2117;47.972;7.830;2024-01-30T04:17:56;3.60;;;2.40;;
4206;SDS011;2117;47.972;7.830;2024-01-30T04:20:23;4.17;;;2.67;;
4206;SDS011;2117;47.972;7.830;2024-01-30T04:22:48;4.77;;;2.10;;
4206;SDS011;2117;47.972;7.830;2024-01-30T04:25:14;3.20;;;2.23;;
4206;SDS011;2117;47.972;7.830;2024-01-30T04:27:40;3.40;;;2.40;;
4206;SDS011;2117;47.972;7.830;2024-01-30T04:30:05;6.67;;;2.60;;
4206;SDS011;2117;47.972;7.830;2024-01-30T04:32:32;5.60;;;3.30;;
4206;SDS011;2117;47.972;7.830;2024-01-30T04:34:58;4.03;;;2.47;;
4206;SDS011;2117;47.972;7.830;2024-01-30T04:37:23;6.40;;;3.30;;
4206;SDS011;2117;47.972;7.830;2024-01-30T04:39:49;4.63;;;2.93;;
4206;SDS011;2117;47.972;7.830;2024-01-30T04:42:15;3.00;;;2.23;;
4206;SDS011;2117;47.972;7.830;2024-01-30T04:44:41;11.03;;;3.73;;
4206;SDS011;2117;47.972;7.830;2024-01-30T04:47:07;4.00;;;2.87;;
4206;SDS011;2117;47.972;7.830;2024-01-30T04:49:34;5.40;;;3.07;;
4206;SDS011;2117;47.972;7.830;2024-01-30T04:52:00;14.83;;;4.40;;
4206;SDS011;2117;47.972;7.830;2024-01-30T04:54:25;6.83;;;3.70;;
4206;SDS011;2117;47.972;7.830;2024-01-30T04:56:51;8.83;;;4.80;;
4206;SDS011;2117;47.972;7.830;2024-01-30T04:59:16;8.37;;;5.07;;
4206;SDS011;2117;47.972;7.830;2024-01-30T05:01:42;10.27;;;4.00;;
4206;SDS011;2117;47.972;7.830;2024-01-30T05:04:08;7.70;;;4.40;;
4206;SDS011;2117;47.972;7.830;2024-01-30T05:06:34;6.87;;;3.73;;
4206;SDS011;2117;47.972;7.830;2024-01-30T05:08:59;7.00;;;3.50;;
4206;SDS011;2117;47.972;7.830;2024-01-30T05:11:25;6.70;;;3.70;;
4206;SDS011;2117;47.972;7.830;2024-01-30T05:13:51;10.83;;;7.33;;
4206;SDS011;2117;47.972;7.830;2024-01-30T05:16:16;11.60;;;6.67;;
4206;SDS011;2117;47.972;7.830;2024-01-30T05:18:42;11.33;;;5.37;;
4206;SDS011;2117;47.972;7.830;2024-01-30T05:21:08;7.20;;;4.37;;
4206;SDS011;2117;47.972;7.830;2024-01-30T05:23:35;5.63;;;3.47;;
4206;SDS011;2117;47.972;7.830;2024-01-30T05:26:00;5.83;;;3.10;;
4206;SDS011;2117;47.972;7.830;2024-01-30T05:28:27;9.30;;;2.80;;
4206;SDS011;2117;47.972;7.830;2024-01-30T05:30:54;6.03;;;2.67;;
4206;SDS011;2117;47.972;7.830;2024-01-30T05:33:20;8.27;;;4.47;;
4206;SDS011;2117;47.972;7.830;2024-01-30T05:35:45;7.83;;;3.47;;
4206;SDS011;2117;47.972;7.830;2024-01-30T05:38:11;9.20;;;3.20;;
4206;SDS011;2117;47.972;7.830;2024-01-30T05:40:37;7.00;;;3.10;;
4206;SDS011;2117;47.972;7.830;2024-01-30T05:43:03;4.50;;;2.90;;
4206;SDS011;2117;47.972;7.830;2024-01-30T05:45:28;7.10;;;3.70;;
4206;SDS011;2117;47.972;7.830;2024-01-30T05:47:54;7.77;;;4.60;;
4206;SDS011;2117;47.972;7.830;2024-01-30T05:50:19;8.43;;;5.13;;
4206;SDS011;2117;47.972;7.830;2024-01-30T05:52:48;6.10;;;3.83;;
4206;SDS011;2117;47.972;7.830;2024-01-30T05:55:13;6.77;;;3.60;;
4206;SDS011;2117;47.972;7.830;2024-01-30T05:57:39;7.00;;;4.50;;
4206;SDS011;2117;47.972;7.830;2024-01-30T06:00:05;8.47;;;3.70;;
4206;SDS011;2117;47.972;7.830;2024-01-30T06:02:32;7.67;;;4.13;;
4206;SDS011;2117;47.972;7.830;2024-01-30T06:04:58;9.03;;;4.80;;
4206;SDS011;2117;47.972;7.830;2024-01-30T06:07:23;11.23;;;5.27;;
4206;SDS011;2117;47.972;7.830;2024-01-30T06:09:49;11.33;;;6.30;;
4206;SDS011;2117;47.972;7.830;2024-01-30T06:12:15;11.97;;;5.90;;
4206;SDS011;2117;47.972;7.830;2024-01-30T06:14:40;11.23;;;5.60;;
4206;SDS011;2117;47.972;7.830;2024-01-30T06:17:07;9.90;;;6.17;;
4206;SDS011;2117;47.972;7.830;2024-01-30T06:19:33;11.17;;;7.70;;
4206;SDS011;2117;47.972;7.830;2024-01-30T06:21:58;15.73;;;6.20;;
4206;SDS011;2117;47.972;7.830;2024-01-30T06:24:24;8.97;;;5.50;;
4206;SDS011;2117;47.972;7.830;2024-01-30T06:26:50;11.20;;;5.83;;
4206;SDS011;2117;47.972;7.830;2024-01-30T06:29:15;8.27;;;5.37;;
4206;SDS011;2117;47.972;7.830;2024-01-30T06:31:41;9.50;;;4.90;;
4206;SDS011;2117;47.972;7.830;2024-01-30T06:34:08;8.97;;;5.67;;
4206;SDS011;2117;47.972;7.830;2024-01-30T06:36:34;6.50;;;4.83;;
4206;SDS011;2117;47.972;7.830;2024-01-30T06:39:01;8.30;;;4.97;;
4206;SDS011;2117;47.972;7.830;2024-01-30T06:41:27;5.83;;;4.47;;
4206;SDS011;2117;47.972;7.830;2024-01-30T06:43:53;7.07;;;4.77;;
4206;SDS011;2117;47.972;7.830;2024-01-30T06:46:18;8.70;;;5.50;;
4206;SDS011;2117;47.972;7.830;2024-01-30T06:48:44;11.50;;;4.73;;
4206;SDS011;2117;47.972;7.830;2024-01-30T06:51:10;8.43;;;4.20;;
4206;SDS011;2117;47.972;7.830;2024-01-30T06:53:37;7.70;;;4.30;;
4206;SDS011;2117;47.972;7.830;2024-01-30T06:56:03;8.17;;;4.77;;
4206;SDS011;2117;47.972;7.830;2024-01-30T06:58:28;6.13;;;3.87;;
4206;SDS011;2117;47.972;7.830;2024-01-30T07:00:54;8.43;;;4.53;;
4206;SDS011;2117;47.972;7.830;2024-01-30T07:03:20;7.87;;;4.30;;
4206;SDS011;2117;47.972;7.830;2024-01-30T07:05:46;8.53;;;4.33;;
4206;SDS011;2117;47.972;7.830;2024-01-30T07:08:12;11.50;;;4.33;;
4206;SDS011;2117;47.972;7.830;2024-01-30T07:10:38;9.13;;;5.20;;
4206;SDS011;2117;47.972;7.830;2024-01-30T07:13:03;6.87;;;4.10;;
4206;SDS011;2117;47.972;7.830;2024-01-30T07:15:30;6.00;;;3.77;;
4206;SDS011;2117;47.972;7.830;2024-01-30T07:17:56;9.50;;;3.80;;
4206;SDS011;2117;47.972;7.830;2024-01-30T07:20:22;9.67;;;4.23;;
4206;SDS011;2117;47.972;7.830;2024-01-30T07:22:47;7.93;;;4.53;;
4206;SDS011;2117;47.972;7.830;2024-01-30T07:25:13;8.83;;;3.67;;
4206;SDS011;2117;47.972;7.830;2024-01-30T07:27:38;9.23;;;3.90;;
4206;SDS011;2117;47.972;7.830;2024-01-30T07:30:04;6.10;;;3.90;;
4206;SDS011;2117;47.972;7.830;2024-01-30T07:32:31;7.67;;;4.43;;
4206;SDS011;2117;47.972;7.830;2024-01-30T07:34:57;8.33;;;3.70;;
4206;SDS011;2117;47.972;7.830;2024-01-30T07:37:22;9.33;;;4.03;;
4206;SDS011;2117;47.972;7.830;2024-01-30T07:39:48;6.47;;;3.70;;
4206;SDS011;2117;47.972;7.830;2024-01-30T07:42:13;6.43;;;3.63;;
4206;SDS011;2117;47.972;7.830;2024-01-30T07:44:39;6.80;;;4.30;;
4206;SDS011;2117;47.972;7.830;2024-01-30T07:47:05;4.90;;;3.33;;
4206;SDS011;2117;47.972;7.830;2024-01-30T07:49:31;5.90;;;3.97;;
4206;SDS011;2117;47.972;7.830;2024-01-30T07:51:58;6.20;;;4.00;;
4206;SDS011;2117;47.972;7.830;2024-01-30T07:54:23;4.60;;;3.23;;
4206;SDS011;2117;47.972;7.830;2024-01-30T07:56:49;5.93;;;3.47;;
4206;SDS011;2117;47.972;7.830;2024-01-30T07:59:15;4.83;;;3.80;;
4206;SDS011;2117;47.972;7.830;2024-01-30T08:01:41;5.40;;;3.50;;
4206;SDS011;2117;47.972;7.830;2024-01-30T08:04:06;4.90;;;3.47;;
4206;SDS011;2117;47.972;7.830;2024-01-30T08:06:35;7.10;;;3.00;;
4206;SDS011;2117;47.972;7.830;2024-01-30T08:09:00;5.40;;;3.00;;
4206;SDS011;2117;47.972;7.830;2024-01-30T08:11:26;9.20;;;3.47;;
4206;SDS011;2117;47.972;7.830;2024-01-30T08:13:53;7.40;;;3.63;;
4206;SDS011;2117;47.972;7.830;2024-01-30T08:16:19;4.97;;;3.10;;
4206;SDS011;2117;47.972;7.830;2024-01-30T08:18:44;11.13;;;3.53;;
4206;SDS011;2117;47.972;7.830;2024-01-30T08:21:10;8.43;;;3.90;;
4206;SDS011;2117;47.972;7.830;2024-01-30T08:23:37;5.90;;;3.90;;
4206;SDS011;2117;47.972;7.830;2024-01-30T08:26:04;4.70;;;3.27;;
4206;SDS011;2117;47.972;7.830;2024-01-30T08:28:30;5.70;;;3.20;;
4206;SDS011;2117;47.972;7.830;2024-01-30T08:30:56;5.13;;;3.80;;
4206;SDS011;2117;47.972;7.830;2024-01-30T08:33:22;6.40;;;4.10;;
4206;SDS011;2117;47.972;7.830;2024-01-30T08:35:47;11.30;;;4.00;;
4206;SDS011;2117;47.972;7.830;2024-01-30T08:38:13;6.90;;;3.50;;
4206;SDS011;2117;47.972;7.830;2024-01-30T08:40:39;5.90;;;3.50;;
4206;SDS011;2117;47.972;7.830;2024-01-30T08:43:04;7.40;;;3.37;;
4206;SDS011;2117;47.972;7.830;2024-01-30T08:45:30;8.23;;;3.50;;
4206;SDS011;2117;47.972;7.830;2024-01-30T08:47:56;5.40;;;3.23;;
4206;SDS011;2117;47.972;7.830;2024-01-30T08:50:22;6.37;;;3.73;;
4206;SDS011;2117;47.972;7.830;2024-01-30T08:52:47;5.53;;;3.67;;
4206;SDS011;2117;47.972;7.830;2024-01-30T08:55:13;5.07;;;3.53;;
4206;SDS011;2117;47.972;7.830;2024-01-30T08:57:39;6.20;;;3.97;;
4206;SDS011;2117;47.972;7.830;2024-01-30T09:00:06;5.60;;;3.60;;
4206;SDS011;2117;47.972;7.830;2024-01-30T09:02:34;7.43;;;3.70;;
4206;SDS011;2117;47.972;7.830;2024-01-30T09:05:00;7.77;;;4.17;;
4206;SDS011;2117;47.972;7.830;2024-01-30T09:07:26;4.73;;;2.90;;
4206;SDS011;2117;47.972;7.830;2024-01-30T09:09:51;6.10;;;3.60;;
4206;SDS011;2117;47.972;7.830;2024-01-30T09:12:17;6.20;;;4.20;;
4206;SDS011;2117;47.972;7.830;2024-01-30T09:14:43;4.70;;;3.63;;
4206;SDS011;2117;47.972;7.830;2024-01-30T09:17:09;4.87;;;3.80;;
4206;SDS011;2117;47.972;7.830;2024-01-30T09:19:35;6.77;;;3.60;;
4206;SDS011;2117;47.972;7.830;2024-01-30T09:22:01;5.20;;;4.03;;
4206;SDS011;2117;47.972;7.830;2024-01-30T09:24:26;6.07;;;3.70;;
4206;SDS011;2117;47.972;7.830;2024-01-30T09:26:52;4.30;;;3.60;;
4206;SDS011;2117;47.972;7.830;2024-01-30T09:29:18;5.40;;;3.03;;
4206;SDS011;2117;47.972;7.830;2024-01-30T09:31:44;5.77;;;3.50;;
4206;SDS011;2117;47.972;7.830;2024-01-30T09:34:10;5.20;;;3.40;;
4206;SDS011;2117;47.972;7.830;2024-01-30T09:36:36;4.67;;;2.90;;
4206;SDS011;2117;47.972;7.830;2024-01-30T09:39:02;5.03;;;3.80;;
4206;SDS011;2117;47.972;7.830;2024-01-30T09:41:28;7.93;;;4.13;;
4206;SDS011;2117;47.972;7.830;2024-01-30T09:43:57;8.10;;;4.53;;
4206;SDS011;2117;47.972;7.830;2024-01-30T09:46:23;5.73;;;3.77;;
4206;SDS011;2117;47.972;7.830;2024-01-30T09:48:55;8.27;;;4.00;;
4206;SDS011;2117;47.972;7.830;2024-01-30T09:51:22;7.10;;;3.97;;
4206;SDS011;2117;47.972;7.830;2024-01-30T09:53:49;5.70;;;4.37;;
4206;SDS011;2117;47.972;7.830;2024-01-30T09:56:15;4.57;;;3.53;;
4206;SDS011;2117;47.972;7.830;2024-01-30T09:58:42;5.43;;;3.57;;
4206;SDS011;2117;47.972;7.830;2024-01-30T10:01:07;7.90;;;4.20;;
4206;SDS011;2117;47.972;7.830;2024-01-30T10:03:33;6.53;;;4.17;;
4206;SDS011;2117;47.972;7.830;2024-01-30T10:05:59;8.60;;;4.27;;
4206;SDS011;2117;47.972;7.830;2024-01-30T10:08:26;9.37;;;4.57;;
4206;SDS011;2117;47.972;7.830;2024-01-30T10:10:51;4.43;;;3.07;;
4206;SDS011;2117;47.972;7.830;2024-01-30T10:13:17;8.23;;;4.13;;
4206;SDS011;2117;47.972;7.830;2024-01-30T10:15:43;7.60;;;3.83;;
4206;SDS011;2117;47.972;7.830;2024-01-30T10:18:10;7.57;;;4.70;;
4206;SDS011;2117;47.972;7.830;2024-01-30T10:20:36;6.67;;;4.07;;
4206;SDS011;2117;47.972;7.830;2024-01-30T10:23:02;5.37;;;3.40;;
4206;SDS011;2117;47.972;7.830;2024-01-30T10:25:28;5.07;;;3.77;;
4206;SDS011;2117;47.972;7.830;2024-01-30T10:27:56;5.73;;;3.80;;
4206;SDS011;2117;47.972;7.830;2024-01-30T10:30:23;5.10;;;3.53;;
4206;SDS011;2117;47.972;7.830;2024-01-30T10:32:49;7.87;;;4.07;;
4206;SDS011;2117;47.972;7.830;2024-01-30T10:35:16;9.23;;;3.63;;
4206;SDS011;2117;47.972;7.830;2024-01-30T10:37:46;6.00;;;3.53;;
4206;SDS011;2117;47.972;7.830;2024-01-30T10:40:15;5.33;;;3.13;;
4206;SDS011;2117;47.972;7.830;2024-01-30T10:42:44;5.60;;;3.30;;
4206;SDS011;2117;47.972;7.830;2024-01-30T10:45:11;5.50;;;3.10;;
4206;SDS011;2117;47.972;7.830;2024-01-30T10:47:39;5.13;;;3.10;;
4206;SDS011;2117;47.972;7.830;2024-01-30T10:50:07;4.97;;;3.00;;
4206;SDS011;2117;47.972;7.830;2024-01-30T10:52:34;3.73;;;3.07;;
4206;SDS011;2117;47.972;7.830;2024-01-30T10:55:00;5.33;;;2.70;;
4206;SDS011;2117;47.972;7.830;2024-01-30T10:57:26;6.60;;;2.90;;
4206;SDS011;2117;47.972;7.830;2024-01-30T10:59:59;3.80;;;2.40;;
4206;SDS011;2117;47.972;7.830;2024-01-30T11:02:30;5.80;;;3.20;;
4206;SDS011;2117;47.972;7.830;2024-01-30T11:04:57;4.10;;;2.53;;
4206;SDS011;2117;47.972;7.830;2024-01-30T11:07:27;5.43;;;3.07;;
4206;SDS011;2117;47.972;7.830;2024-01-30T11:09:59;5.80;;;3.20;;
4206;SDS011;2117;47.972;7.830;2024-01-30T11:12:27;3.80;;;2.47;;
4206;SDS011;2117;47.972;7.830;2024-01-30T11:15:06;4.40;;;2.80;;
4206;SDS011;2117;47.972;7.830;2024-01-30T11:20:09;4.33;;;2.50;;
4206;SDS011;2117;47.972;7.830;2024-01-30T11:22:45;4.30;;;2.60;;
4206;SDS011;2117;47.972;7.830;2024-01-30T11:25:12;4.00;;;2.97;;
4206;SDS011;2117;47.972;7.830;2024-01-30T11:27:42;3.50;;;2.40;;
4206;SDS011;2117;47.972;7.830;2024-01-30T11:30:09;2.87;;;2.20;;
4206;SDS011;2117;47.972;7.830;2024-01-30T11:32:35;7.50;;;2.90;;
4206;SDS011;2117;47.972;7.830;2024-01-30T11:35:05;5.30;;;2.43;;
4206;SDS011;2117;47.972;7.830;2024-01-30T11:37:31;3.33;;;2.33;;
4206;SDS011;2117;47.972;7.830;2024-01-30T11:39:57;3.50;;;2.40;;
4206;SDS011;2117;47.972;7.830;2024-01-30T11:42:23;3.90;;;2.57;;
4206;SDS011;2117;47.972;7.830;2024-01-30T11:44:52;5.97;;;3.07;;
4206;SDS011;2117;47.972;7.830;2024-01-30T11:47:18;5.43;;;3.03;;
4206;SDS011;2117;47.972;7.830;2024-01-30T11:49:43;3.50;;;2.00;;
4206;SDS011;2117;47.972;7.830;2024-01-30T11:52:09;6.17;;;3.20;;
4206;SDS011;2117;47.972;7.830;2024-01-30T11:54:35;7.03;;;3.50;;
4206;SDS011;2117;47.972;7.830;2024-01-30T11:57:04;3.60;;;2.77;;
4206;SDS011;2117;47.972;7.830;2024-01-30T11:59:30;4.93;;;2.53;;
4206;SDS011;2117;47.972;7.830;2024-01-30T12:01:55;5.47;;;2.47;;
4206;SDS011;2117;47.972;7.830;2024-01-30T12:04:21;3.73;;;2.93;;
4206;SDS011;2117;47.972;7.830;2024-01-30T12:06:50;4.93;;;3.60;;
4206;SDS011;2117;47.972;7.830;2024-01-30T12:09:16;6.37;;;2.63;;
4206;SDS011;2117;47.972;7.830;2024-01-30T12:11:48;5.67;;;4.03;;
4206;SDS011;2117;47.972;7.830;2024-01-30T12:14:17;3.00;;;2.37;;
4206;SDS011;2117;47.972;7.830;2024-01-30T12:16:47;5.20;;;2.87;;
4206;SDS011;2117;47.972;7.830;2024-01-30T12:19:21;4.03;;;3.03;;
4206;SDS011;2117;47.972;7.830;2024-01-30T12:21:47;4.80;;;3.37;;
4206;SDS011;2117;47.972;7.830;2024-01-30T12:24:18;4.90;;;3.30;;
4206;SDS011;2117;47.972;7.830;2024-01-30T12:26:43;5.13;;;3.40;;
4206;SDS011;2117;47.972;7.830;2024-01-30T12:29:09;4.60;;;3.13;;
4206;SDS011;2117;47.972;7.830;2024-01-30T12:31:35;5.60;;;3.27;;
4206;SDS011;2117;47.972;7.830;2024-01-30T12:34:00;5.47;;;2.93;;
4206;SDS011;2117;47.972;7.830;2024-01-30T12:36:26;4.80;;;3.43;;
4206;SDS011;2117;47.972;7.830;2024-01-30T12:38:54;3.87;;;2.90;;
4206;SDS011;2117;47.972;7.830;2024-01-30T12:41:21;6.70;;;3.10;;
4206;SDS011;2117;47.972;7.830;2024-01-30T12:43:47;5.43;;;3.43;;
4206;SDS011;2117;47.972;7.830;2024-01-30T12:46:12;4.90;;;3.20;;
4206;SDS011;2117;47.972;7.830;2024-01-30T12:48:38;5.33;;;3.23;;
4206;SDS011;2117;47.972;7.830;2024-01-30T12:51:03;5.80;;;3.70;;
4206;SDS011;2117;47.972;7.830;2024-01-30T12:53:29;6.03;;;3.10;;
4206;SDS011;2117;47.972;7.830;2024-01-30T12:55:55;4.87;;;3.30;;
4206;SDS011;2117;47.972;7.830;2024-01-30T12:58:20;8.33;;;3.13;;
4206;SDS011;2117;47.972;7.830;2024-01-30T13:00:46;4.10;;;3.50;;
4206;SDS011;2117;47.972;7.830;2024-01-30T13:03:12;4.60;;;3.03;;
4206;SDS011;2117;47.972;7.830;2024-01-30T13:05:38;4.23;;;3.13;;
4206;SDS011;2117;47.972;7.830;2024-01-30T13:08:03;6.77;;;3.67;;
4206;SDS011;2117;47.972;7.830;2024-01-30T13:10:29;6.20;;;3.53;;
4206;SDS011;2117;47.972;7.830;2024-01-30T13:12:55;4.67;;;3.00;;
4206;SDS011;2117;47.972;7.830;2024-01-30T13:15:20;5.93;;;3.50;;
4206;SDS011;2117;47.972;7.830;2024-01-30T13:17:47;4.00;;;3.33;;
4206;SDS011;2117;47.972;7.830;2024-01-30T13:20:13;4.77;;;3.10;;
4206;SDS011;2117;47.972;7.830;2024-01-30T13:22:44;6.03;;;2.90;;
4206;SDS011;2117;47.972;7.830;2024-01-30T13:25:09;6.50;;;3.70;;
4206;SDS011;2117;47.972;7.830;2024-01-30T13:27:35;4.70;;;3.27;;
4206;SDS011;2117;47.972;7.830;2024-01-30T13:30:02;4.57;;;3.23;;
4206;SDS011;2117;47.972;7.830;2024-01-30T13:32:28;6.40;;;3.20;;
4206;SDS011;2117;47.972;7.830;2024-01-30T13:34:54;5.60;;;3.60;;
4206;SDS011;2117;47.972;7.830;2024-01-30T13:37:19;7.33;;;3.03;;
4206;SDS011;2117;47.972;7.830;2024-01-30T13:39:47;5.27;;;3.43;;
4206;SDS011;2117;47.972;7.830;2024-01-30T13:42:12;4.20;;;2.73;;
4206;SDS011;2117;47.972;7.830;2024-01-30T13:44:38;6.13;;;3.70;;
4206;SDS011;2117;47.972;7.830;2024-01-30T13:47:04;7.07;;;3.00;;
4206;SDS011;2117;47.972;7.830;2024-01-30T13:49:29;3.83;;;3.03;;
4206;SDS011;2117;47.972;7.830;2024-01-30T13:51:55;7.23;;;3.70;;
4206;SDS011;2117;47.972;7.830;2024-01-30T13:54:21;5.07;;;3.30;;
4206;SDS011;2117;47.972;7.830;2024-01-30T13:56:46;5.90;;;3.20;;
4206;SDS011;2117;47.972;7.830;2024-01-30T13:59:12;6.17;;;3.40;;
4206;SDS011;2117;47.972;7.830;2024-01-30T14:01:37;5.77;;;3.77;;
4206;SDS011;2117;47.972;7.830;2024-01-30T14:04:03;3.87;;;3.30;;
4206;SDS011;2117;47.972;7.830;2024-01-30T14:06:28;5.37;;;4.10;;
4206;SDS011;2117;47.972;7.830;2024-01-30T14:08:54;5.37;;;3.60;;
4206;SDS011;2117;47.972;7.830;2024-01-30T14:11:20;5.73;;;3.50;;
4206;SDS011;2117;47.972;7.830;2024-01-30T14:13:46;6.63;;;3.10;;
4206;SDS011;2117;47.972;7.830;2024-01-30T14:16:11;6.87;;;3.43;;
4206;SDS011;2117;47.972;7.830;2024-01-30T14:18:37;5.80;;;3.67;;
4206;SDS011;2117;47.972;7.830;2024-01-30T14:21:02;7.53;;;3.80;;
4206;SDS011;2117;47.972;7.830;2024-01-30T14:23:28;5.50;;;3.53;;
4206;SDS011;2117;47.972;7.830;2024-01-30T14:25:54;4.97;;;4.20;;
4206;SDS011;2117;47.972;7.830;2024-01-30T14:28:19;7.47;;;4.47;;
4206;SDS011;2117;47.972;7.830;2024-01-30T14:30:45;6.00;;;4.03;;
4206;SDS011;2117;47.972;7.830;2024-01-30T14:33:10;5.30;;;3.70;;
4206;SDS011;2117;47.972;7.830;2024-01-30T14:35:36;9.23;;;4.87;;
4206;SDS011;2117;47.972;7.830;2024-01-30T14:38:02;6.50;;;4.40;;
4206;SDS011;2117;47.972;7.830;2024-01-30T14:40:30;5.67;;;3.50;;
4206;SDS011;2117;47.972;7.830;2024-01-30T14:42:55;5.77;;;3.67;;
4206;SDS011;2117;47.972;7.830;2024-01-30T14:45:21;6.43;;;4.00;;
4206;SDS011;2117;47.972;7.830;2024-01-30T14:47:47;6.30;;;4.57;;
4206;SDS011;2117;47.972;7.830;2024-01-30T14:50:12;7.10;;;4.40;;
4206;SDS011;2117;47.972;7.830;2024-01-30T14:52:38;10.43;;;4.43;;
4206;SDS011;2117;47.972;7.830;2024-01-30T14:55:05;3.80;;;2.77;;
4206;SDS011;2117;47.972;7.830;2024-01-30T14:57:31;5.90;;;3.60;;
4206;SDS011;2117;47.972;7.830;2024-01-30T14:59:56;6.00;;;2.97;;
4206;SDS011;2117;47.972;7.830;2024-01-30T15:02:22;10.83;;;3.87;;
4206;SDS011;2117;47.972;7.830;2024-01-30T15:04:48;4.40;;;3.53;;
4206;SDS011;2117;47.972;7.830;2024-01-30T15:07:13;10.30;;;3.90;;
4206;SDS011;2117;47.972;7.830;2024-01-30T15:09:39;7.50;;;3.40;;
4206;SDS011;2117;47.972;7.830;2024-01-30T15:12:04;6.50;;;4.20;;